Ekin, Indiana
Current Conditions -  °F | °C
As of 1:15 PM on Friday 31 Oct 2014 (Local Time) from KTYQ Reporting Station
Overcast Overcast  
Wind Chill: -1°   Ceiling: 2300
Heat Index:   Visibility: 10mi
Dew Point:   Wind: 20mph
Humidity: 73%   Direction: 300°WNW
Pressure: 30.01"   Gusts: 25mph
Location:  40.1832°N, 85.9359°W
Report Text: KTYQ 311715Z AUTO 30017G22KT 10SM BKN023 OVC032 05/00 A3001 RMK AO2 T00450000
Loading
Personal Weather Stations






























Interactive Weather Map
Tropical Storm Tracking
New forecast layout! Learn more

10-Day Weather Forecast

Advertisements
Track Severe Weather on mobile